createdAt,value
2019-02-24T00:02:18.391Z,6.47
2019-02-24T00:04:45.713Z,6.65
2019-02-24T00:07:13.005Z,6.35
2019-02-24T00:09:40.400Z,6.70
2019-02-24T00:12:07.759Z,6.87
2019-02-24T00:14:35.174Z,6.33
2019-02-24T00:17:02.553Z,6.40
2019-02-24T00:19:29.906Z,6.45
2019-02-24T00:21:57.345Z,7.10
2019-02-24T00:24:24.703Z,6.85
2019-02-24T00:26:52.286Z,6.47
2019-02-24T00:29:19.616Z,7.10
2019-02-24T00:31:46.946Z,6.75
2019-02-24T00:34:14.221Z,7.08
2019-02-24T00:36:41.569Z,6.50
2019-02-24T00:39:09.101Z,6.90
2019-02-24T00:41:36.717Z,6.58
2019-02-24T00:44:05.062Z,6.35
2019-02-24T00:46:32.363Z,7.15
2019-02-24T00:48:59.639Z,6.72
2019-02-24T00:51:27.139Z,6.95
2019-02-24T00:53:54.612Z,7.08
2019-02-24T00:56:21.953Z,6.72
2019-02-24T00:58:50.880Z,6.87
2019-02-24T01:01:20.428Z,6.50
2019-02-24T01:03:48.450Z,6.75
2019-02-24T01:06:17.729Z,7.45
2019-02-24T01:08:45.171Z,7.45
2019-02-24T01:11:12.719Z,6.60
2019-02-24T01:13:39.990Z,6.35
2019-02-24T01:16:07.275Z,7.00
2019-02-24T01:18:34.658Z,6.95
2019-02-24T01:21:02.078Z,7.12
2019-02-24T01:23:30.522Z,7.10
2019-02-24T01:25:58.207Z,7.17
2019-02-24T01:28:25.725Z,7.15
2019-02-24T01:30:53.152Z,7.47
2019-02-24T01:33:20.472Z,7.47
2019-02-24T01:35:48.215Z,7.05
2019-02-24T01:38:15.749Z,7.03
2019-02-24T01:40:43.108Z,7.17
2019-02-24T01:43:10.529Z,6.58
2019-02-24T01:45:38.156Z,7.03
2019-02-24T01:48:05.531Z,7.58
2019-02-24T01:50:32.984Z,6.95
2019-02-24T01:53:00.446Z,6.50
2019-02-24T01:55:28.034Z,7.42
2019-02-24T01:57:55.321Z,7.45
2019-02-24T02:00:22.879Z,7.28
2019-02-24T02:02:50.374Z,7.00
2019-02-24T02:05:17.905Z,7.40
2019-02-24T02:07:45.256Z,6.78
2019-02-24T02:10:12.618Z,7.10
2019-02-24T02:12:40.119Z,7.40
2019-02-24T02:15:07.854Z,7.20
2019-02-24T02:17:35.202Z,7.12
2019-02-24T02:20:02.686Z,7.35
2019-02-24T02:22:30.006Z,7.08
2019-02-24T02:24:57.478Z,6.97
2019-02-24T02:27:24.907Z,6.85
2019-02-24T02:29:52.313Z,7.17
2019-02-24T02:32:19.723Z,7.25
2019-02-24T02:34:47.565Z,7.35
2019-02-24T02:37:14.918Z,6.75
2019-02-24T02:39:42.301Z,6.75
2019-02-24T02:42:09.706Z,6.70
2019-02-24T02:44:37.520Z,6.70
2019-02-24T02:47:05.040Z,7.10
2019-02-24T02:49:32.500Z,7.10
2019-02-24T02:51:59.880Z,7.10
2019-02-24T02:54:27.404Z,7.37
2019-02-24T02:56:54.958Z,7.58
2019-02-24T02:59:22.305Z,6.90
2019-02-24T03:01:49.658Z,7.00
2019-02-24T03:04:17.056Z,7.00
2019-02-24T03:06:49.045Z,7.45
2019-02-24T03:09:16.405Z,7.37
2019-02-24T03:11:43.725Z,7.15
2019-02-24T03:14:10.996Z,7.35
2019-02-24T03:16:38.545Z,7.50
2019-02-24T03:19:05.998Z,7.58
2019-02-24T03:21:33.434Z,6.95
2019-02-24T03:24:00.844Z,7.35
2019-02-24T03:26:28.503Z,7.35
2019-02-24T03:29:03.784Z,7.00
2019-02-24T03:31:24.951Z,7.30
2019-02-24T03:33:52.368Z,7.50
2019-02-24T03:36:19.823Z,7.92
2019-02-24T03:38:47.336Z,7.37
2019-02-24T03:41:16.735Z,7.28
2019-02-24T03:43:43.867Z,7.65
2019-02-24T03:46:11.152Z,8.30
2019-02-24T03:48:38.497Z,7.90
2019-02-24T03:51:05.793Z,7.50
2019-02-24T03:53:33.064Z,8.15
2019-02-24T03:56:00.376Z,8.40
2019-02-24T03:58:27.669Z,7.35
2019-02-24T04:00:54.946Z,8.23
2019-02-24T04:03:22.236Z,7.28
2019-02-24T04:05:49.564Z,8.05
2019-02-24T04:08:16.919Z,7.58
2019-02-24T04:10:44.203Z,7.67
2019-02-24T04:13:11.600Z,8.15
2019-02-24T04:15:38.943Z,8.38
2019-02-24T04:18:09.200Z,7.87
2019-02-24T04:20:36.472Z,7.37
2019-02-24T04:23:03.786Z,8.08
2019-02-24T04:25:31.156Z,7.83
2019-02-24T04:27:58.432Z,8.58
2019-02-24T04:30:25.706Z,8.23
2019-02-24T04:32:53.025Z,7.28
2019-02-24T04:35:20.307Z,7.60
2019-02-24T04:37:47.598Z,7.80
2019-02-24T04:40:14.904Z,7.35
2019-02-24T04:42:42.178Z,7.97
2019-02-24T04:45:09.525Z,8.05
2019-02-24T04:47:36.800Z,7.47
2019-02-24T04:50:04.870Z,8.73
2019-02-24T04:52:32.153Z,8.25
2019-02-24T04:54:59.522Z,8.20
2019-02-24T04:57:26.827Z,7.95
2019-02-24T04:59:54.109Z,8.15
2019-02-24T05:02:21.386Z,8.10
2019-02-24T05:04:48.676Z,8.25
2019-02-24T05:07:15.959Z,7.90
2019-02-24T05:09:43.318Z,8.43
2019-02-24T05:12:10.621Z,8.40
2019-02-24T05:14:38.003Z,8.48
2019-02-24T05:17:05.360Z,8.20
2019-02-24T05:19:32.654Z,8.30
2019-02-24T05:21:59.995Z,7.85
2019-02-24T05:24:27.345Z,8.05
2019-02-24T05:26:54.640Z,8.03
2019-02-24T05:29:21.913Z,8.78
2019-02-24T05:31:49.197Z,8.25
2019-02-24T05:34:16.478Z,9.18
2019-02-24T05:36:44.258Z,8.65
2019-02-24T05:39:11.540Z,8.20
2019-02-24T05:41:39.098Z,8.20
2019-02-24T05:44:06.411Z,8.78
2019-02-24T05:46:33.688Z,8.48
2019-02-24T05:49:01.244Z,8.53
2019-02-24T05:51:28.542Z,9.25
2019-02-24T05:53:55.860Z,8.63
2019-02-24T05:56:23.142Z,8.43
2019-02-24T05:58:50.417Z,8.93
2019-02-24T06:01:17.711Z,9.55
2019-02-24T06:03:45.064Z,9.00
2019-02-24T06:06:12.412Z,9.40
2019-02-24T06:08:39.681Z,9.05
2019-02-24T06:11:07.114Z,8.58
2019-02-24T06:13:34.398Z,8.58
2019-02-24T06:16:01.705Z,9.00
2019-02-24T06:18:29.153Z,9.45
2019-02-24T06:20:56.457Z,8.83
2019-02-24T06:23:25.688Z,9.08
2019-02-24T06:25:53.031Z,8.88
2019-02-24T06:28:20.390Z,8.90
2019-02-24T06:30:47.682Z,9.68
2019-02-24T06:33:14.975Z,9.13
2019-02-24T06:35:42.292Z,9.05
2019-02-24T06:38:09.610Z,8.90
2019-02-24T06:40:36.913Z,9.25
2019-02-24T06:43:04.254Z,8.80
2019-02-24T06:45:32.049Z,9.70
2019-02-24T06:47:59.871Z,9.68
2019-02-24T06:50:35.036Z,9.10
2019-02-24T06:52:57.955Z,9.35
2019-02-24T06:55:25.339Z,9.50
2019-02-24T06:57:52.765Z,9.20
2019-02-24T07:00:20.286Z,9.10
2019-02-24T07:02:47.784Z,9.73
2019-02-24T07:05:15.211Z,9.60
2019-02-24T07:07:42.818Z,9.90
2019-02-24T07:10:13.190Z,9.38
2019-02-24T07:12:40.753Z,8.98
2019-02-24T07:15:08.902Z,9.40
2019-02-24T07:17:36.235Z,8.83
2019-02-24T07:20:04.235Z,9.08
2019-02-24T07:22:31.722Z,9.65
2019-02-24T07:24:59.135Z,9.78
2019-02-24T07:27:26.596Z,9.05
2019-02-24T07:29:53.869Z,8.43
2019-02-24T07:32:21.229Z,8.83
2019-02-24T07:34:48.749Z,9.38
2019-02-24T07:37:16.081Z,9.33
2019-02-24T07:39:45.335Z,8.65
2019-02-24T07:42:13.058Z,8.65
2019-02-24T07:44:40.480Z,9.38
2019-02-24T07:47:07.760Z,9.08
2019-02-24T07:49:35.103Z,9.40
2019-02-24T07:52:02.422Z,8.58
2019-02-24T07:54:29.795Z,8.75
2019-02-24T07:56:57.245Z,9.68
2019-02-24T07:59:24.595Z,9.33
2019-02-24T08:01:52.224Z,9.60
2019-02-24T08:04:19.609Z,8.98
2019-02-24T08:06:46.977Z,9.23
2019-02-24T08:09:14.773Z,9.38
2019-02-24T08:11:42.150Z,9.90
2019-02-24T08:14:09.547Z,9.80
2019-02-24T08:16:37.041Z,8.70
2019-02-24T08:19:07.776Z,9.33
2019-02-24T08:21:35.134Z,9.05
2019-02-24T08:24:02.459Z,9.25
2019-02-24T08:26:29.816Z,9.43
2019-02-24T08:28:57.216Z,9.20
2019-02-24T08:31:24.522Z,9.15
2019-02-24T08:33:51.825Z,9.43
2019-02-24T08:36:19.532Z,8.88
2019-02-24T08:38:47.088Z,9.53
2019-02-24T08:41:14.468Z,10.25
2019-02-24T08:43:41.784Z,9.75
2019-02-24T08:46:11.162Z,9.88
2019-02-24T08:48:38.794Z,10.05
2019-02-24T08:51:06.333Z,9.68
2019-02-24T08:53:33.828Z,10.03
2019-02-24T08:56:01.192Z,9.73
2019-02-24T08:58:28.519Z,9.10
2019-02-24T09:00:55.819Z,9.75
2019-02-24T09:03:23.103Z,9.65
2019-02-24T09:05:50.391Z,9.63
2019-02-24T09:08:17.941Z,9.73
2019-02-24T09:10:45.215Z,9.43
2019-02-24T09:13:12.487Z,9.03
2019-02-24T09:15:39.876Z,8.35
2019-02-24T09:18:07.236Z,9.33
2019-02-24T09:20:35.010Z,9.50
2019-02-24T09:23:02.334Z,9.68
2019-02-24T09:25:29.700Z,10.93
2019-02-24T09:27:57.830Z,11.10
2019-02-24T09:30:25.162Z,11.80
2019-02-24T09:32:52.433Z,12.00
2019-02-24T09:35:19.721Z,12.35
2019-02-24T09:37:46.996Z,13.00
2019-02-24T09:40:14.307Z,11.85
2019-02-24T09:42:42.077Z,11.45
2019-02-24T09:45:12.931Z,11.45
2019-02-24T09:47:46.723Z,11.45
2019-02-24T09:50:09.890Z,11.63
2019-02-24T09:52:37.175Z,10.93
2019-02-24T09:55:05.738Z,11.05
2019-02-24T09:57:33.112Z,10.75
2019-02-24T10:00:00.400Z,10.58
2019-02-24T10:02:27.759Z,10.72
2019-02-24T10:04:55.094Z,9.78
2019-02-24T10:07:22.382Z,10.35
2019-02-24T10:09:49.917Z,9.93
2019-02-24T10:12:17.244Z,9.35
2019-02-24T10:14:44.540Z,10.38
2019-02-24T10:17:11.813Z,10.65
2019-02-24T10:19:39.111Z,10.85
2019-02-24T10:22:06.422Z,11.35
2019-02-24T10:24:33.756Z,10.40
2019-02-24T10:27:01.092Z,10.30
2019-02-24T10:29:28.440Z,10.48
2019-02-24T10:31:55.736Z,11.93
2019-02-24T10:34:23.151Z,10.78
2019-02-24T10:36:50.436Z,11.25
2019-02-24T10:39:17.931Z,11.78
2019-02-24T10:41:45.529Z,10.95
2019-02-24T10:44:12.847Z,11.30
2019-02-24T10:46:40.140Z,12.33
2019-02-24T10:49:07.427Z,11.60
2019-02-24T10:51:34.788Z,11.48
2019-02-24T10:54:02.389Z,11.00
2019-02-24T10:56:29.684Z,10.53
2019-02-24T10:58:56.970Z,11.65
2019-02-24T11:01:29.649Z,10.78
2019-02-24T11:03:53.272Z,12.37
2019-02-24T11:06:23.461Z,12.63
2019-02-24T11:08:50.787Z,13.80
2019-02-24T11:11:18.086Z,13.15
2019-02-24T11:13:45.406Z,14.53
2019-02-24T11:16:12.720Z,14.45
2019-02-24T11:18:40.100Z,13.58
2019-02-24T11:21:07.396Z,13.53
2019-02-24T11:23:34.720Z,13.13
2019-02-24T11:26:02.065Z,14.05
2019-02-24T11:28:29.358Z,13.68
2019-02-24T11:30:56.643Z,13.93
2019-02-24T11:33:23.922Z,13.70
2019-02-24T11:35:51.250Z,13.95
2019-02-24T11:38:18.550Z,14.50
2019-02-24T11:40:45.842Z,13.53
2019-02-24T11:43:13.160Z,13.95
2019-02-24T11:45:40.463Z,13.60
2019-02-24T11:48:07.743Z,13.50
2019-02-24T11:50:35.037Z,13.53
2019-02-24T11:53:02.362Z,13.48
2019-02-24T11:55:29.692Z,13.05
2019-02-24T11:57:56.977Z,12.37
2019-02-24T12:00:24.285Z,12.95
2019-02-24T12:02:51.682Z,13.45
2019-02-24T12:05:18.994Z,12.60
2019-02-24T12:07:46.368Z,11.75
2019-02-24T12:10:13.726Z,11.73
2019-02-24T12:12:41.009Z,12.10
2019-02-24T12:15:09.568Z,12.25
2019-02-24T12:17:36.876Z,12.53
2019-02-24T12:20:05.760Z,12.95
2019-02-24T12:22:33.132Z,12.95
2019-02-24T12:25:00.446Z,13.32
2019-02-24T12:27:27.800Z,12.70
2019-02-24T12:29:55.158Z,13.95
2019-02-24T12:32:22.460Z,12.65
2019-02-24T12:34:50.012Z,13.80
2019-02-24T12:37:17.541Z,14.43
2019-02-24T12:39:45.187Z,15.32
2019-02-24T12:42:12.504Z,16.40
2019-02-24T12:44:39.878Z,19.00
2019-02-24T12:47:07.281Z,19.50
2019-02-24T12:49:34.613Z,17.90
2019-02-24T12:52:02.058Z,18.57
2019-02-24T12:54:29.508Z,17.77
2019-02-24T12:56:56.864Z,16.25
2019-02-24T12:59:24.610Z,15.58
2019-02-24T13:01:52.031Z,14.83
2019-02-24T13:04:19.463Z,14.53
2019-02-24T13:06:46.811Z,15.43
2019-02-24T13:09:14.248Z,13.93
2019-02-24T13:11:41.736Z,14.65
2019-02-24T13:14:09.258Z,15.05
2019-02-24T13:16:36.712Z,14.30
2019-02-24T13:19:04.999Z,15.05
2019-02-24T13:21:32.427Z,13.55
2019-02-24T13:23:59.783Z,14.13
2019-02-24T13:26:29.325Z,15.13
2019-02-24T13:28:56.640Z,17.02
2019-02-24T13:31:24.143Z,16.32
2019-02-24T13:33:51.454Z,16.52
2019-02-24T13:36:18.839Z,16.05
2019-02-24T13:38:46.128Z,15.45
2019-02-24T13:41:20.360Z,19.25
2019-02-24T13:43:47.997Z,16.02
2019-02-24T13:46:15.342Z,16.37
2019-02-24T13:48:42.624Z,14.85
2019-02-24T13:51:09.992Z,16.02
2019-02-24T13:53:38.194Z,15.85
2019-02-24T13:56:06.313Z,15.50
2019-02-24T13:58:33.739Z,16.73
2019-02-24T14:01:01.055Z,15.30
2019-02-24T14:03:28.476Z,15.65
2019-02-24T14:05:56.764Z,16.30
2019-02-24T14:08:24.162Z,14.65
2019-02-24T14:10:51.600Z,15.65
2019-02-24T14:13:19.214Z,16.05
2019-02-24T14:15:46.953Z,16.42
2019-02-24T14:18:14.284Z,16.27
2019-02-24T14:20:41.580Z,16.50
2019-02-24T14:23:08.933Z,16.45
2019-02-24T14:25:36.271Z,17.95
2019-02-24T14:28:03.641Z,16.50
2019-02-24T14:30:31.029Z,16.90
2019-02-24T14:32:58.373Z,17.42
2019-02-24T14:35:26.145Z,15.65
2019-02-24T14:37:53.503Z,15.90
2019-02-24T14:40:20.809Z,16.80
2019-02-24T14:42:48.100Z,16.93
2019-02-24T14:45:16.550Z,16.32
2019-02-24T14:47:44.192Z,16.65
2019-02-24T14:50:11.600Z,16.32
2019-02-24T14:52:38.893Z,15.58
2019-02-24T14:55:07.934Z,16.07
2019-02-24T14:57:35.231Z,15.35
2019-02-24T15:00:02.887Z,16.35
2019-02-24T15:02:30.257Z,16.07
2019-02-24T15:04:57.616Z,16.17
2019-02-24T15:07:24.988Z,15.98
2019-02-24T15:09:52.279Z,15.63
2019-02-24T15:12:19.592Z,15.48
2019-02-24T15:14:46.927Z,15.98
2019-02-24T15:17:14.656Z,15.38
2019-02-24T15:19:41.983Z,15.78
2019-02-24T15:22:09.272Z,15.32
2019-02-24T15:24:36.601Z,15.28
2019-02-24T15:27:03.888Z,15.15
2019-02-24T15:29:31.394Z,15.25
2019-02-24T15:31:59.383Z,15.03
2019-02-24T15:34:26.872Z,15.40
2019-02-24T15:36:54.313Z,15.23
2019-02-24T15:39:21.694Z,15.88
2019-02-24T15:41:53.209Z,14.85
2019-02-24T15:44:20.642Z,15.18
2019-02-24T15:46:48.128Z,15.65
2019-02-24T15:49:15.482Z,15.53
2019-02-24T15:51:43.038Z,15.60
2019-02-24T15:54:10.742Z,16.12
2019-02-24T15:56:38.295Z,15.60
2019-02-24T15:59:05.927Z,16.32
2019-02-24T16:01:33.612Z,16.02
2019-02-24T16:04:01.030Z,15.80
2019-02-24T16:06:36.921Z,15.65
2019-02-24T16:08:57.691Z,15.13
2019-02-24T16:11:25.363Z,15.80
2019-02-24T16:13:53.598Z,15.25
2019-02-24T16:16:21.062Z,14.13
2019-02-24T16:18:58.717Z,15.13
2019-02-24T16:21:17.466Z,14.18
2019-02-24T16:23:45.155Z,14.47
2019-02-24T16:26:12.699Z,14.55
2019-02-24T16:28:41.640Z,14.95
2019-02-24T16:31:09.146Z,14.10
2019-02-24T16:33:39.446Z,14.53
2019-02-24T16:36:11.331Z,15.23
2019-02-24T16:38:36.126Z,15.15
2019-02-24T16:41:03.703Z,14.23
2019-02-24T16:43:31.180Z,14.03
2019-02-24T16:45:58.846Z,14.63
2019-02-24T16:48:26.222Z,15.35
2019-02-24T16:50:53.625Z,14.80
2019-02-24T16:53:21.242Z,14.75
2019-02-24T16:55:48.694Z,13.95
2019-02-24T16:58:16.134Z,14.23
2019-02-24T17:00:43.947Z,14.47
2019-02-24T17:03:19.611Z,14.68
2019-02-24T17:05:41.021Z,13.95
2019-02-24T17:11:07.279Z,14.80
2019-02-24T17:13:30.902Z,14.95
2019-02-24T17:15:58.306Z,14.60
2019-02-24T17:18:25.643Z,14.55
2019-02-24T17:20:52.931Z,15.05
2019-02-24T17:23:20.349Z,15.30
2019-02-24T17:25:47.721Z,14.60
2019-02-24T17:28:15.225Z,14.35
2019-02-24T17:30:42.761Z,15.18
2019-02-24T17:33:10.103Z,15.58
2019-02-24T17:35:37.431Z,14.35
2019-02-24T17:38:04.706Z,15.05
2019-02-24T17:40:32.009Z,14.85
2019-02-24T17:42:59.519Z,16.05
2019-02-24T17:45:27.148Z,15.00
2019-02-24T17:47:54.980Z,15.03
2019-02-24T17:50:22.335Z,14.83
2019-02-24T17:52:49.646Z,15.23
2019-02-24T17:55:17.686Z,14.23
2019-02-24T17:57:45.139Z,15.35
2019-02-24T18:00:27.934Z,15.25
2019-02-24T18:02:56.963Z,15.30
2019-02-24T18:05:24.381Z,14.30
2019-02-24T18:07:51.715Z,14.83
2019-02-24T18:10:19.269Z,15.45
2019-02-24T18:12:46.603Z,14.87
2019-02-24T18:15:14.001Z,14.53
2019-02-24T18:17:41.403Z,15.58
2019-02-24T18:20:14.693Z,16.12
2019-02-24T18:22:42.030Z,15.45
2019-02-24T18:25:10.409Z,15.88
2019-02-24T18:27:37.799Z,16.00
2019-02-24T18:30:12.541Z,15.75
2019-02-24T18:32:41.529Z,16.77
2019-02-24T18:35:10.405Z,16.62
2019-02-24T18:37:37.801Z,16.42
2019-02-24T18:40:06.910Z,16.20
2019-02-24T18:42:34.396Z,15.18
2019-02-24T18:45:01.784Z,15.35
2019-02-24T18:47:29.314Z,15.83
2019-02-24T18:49:56.780Z,16.02
2019-02-24T18:52:24.233Z,16.10
2019-02-24T18:55:04.059Z,16.17
2019-02-24T18:57:22.831Z,16.70
2019-02-24T18:59:50.166Z,16.80
2019-02-24T19:02:20.650Z,15.83
2019-02-24T19:04:48.218Z,16.77
2019-02-24T19:07:17.051Z,15.70
2019-02-24T19:09:44.823Z,16.77
2019-02-24T19:12:12.334Z,15.40
2019-02-24T19:14:40.004Z,15.80
2019-02-24T19:17:07.675Z,15.90
2019-02-24T19:19:35.420Z,17.17
2019-02-24T19:22:03.399Z,15.38
2019-02-24T19:24:31.122Z,16.52
2019-02-24T19:26:58.473Z,15.83
2019-02-24T19:29:26.958Z,15.45
2019-02-24T19:31:54.346Z,16.17
2019-02-24T19:34:22.001Z,16.87
2019-02-24T19:36:50.937Z,16.07
2019-02-24T19:39:18.435Z,15.75
2019-02-24T19:41:46.356Z,17.77
2019-02-24T19:44:31.735Z,17.00
2019-02-24T19:47:01.698Z,19.50
2019-02-24T19:49:29.204Z,21.55
2019-02-24T19:51:56.885Z,20.32
2019-02-24T19:54:24.253Z,20.20
2019-02-24T19:56:54.423Z,21.97
2019-02-24T19:59:26.403Z,21.10
2019-02-24T20:01:54.041Z,21.12
2019-02-24T20:04:21.418Z,22.50
2019-02-24T20:06:49.088Z,21.75
2019-02-24T20:09:16.886Z,21.70
2019-02-24T20:11:44.344Z,21.37
2019-02-24T20:14:11.761Z,20.23
2019-02-24T20:16:39.046Z,20.08
2019-02-24T20:19:06.672Z,20.40
2019-02-24T20:21:35.069Z,18.48
2019-02-24T20:24:02.782Z,18.80
2019-02-24T20:26:35.435Z,18.98
2019-02-24T20:29:02.766Z,18.87
2019-02-24T20:31:30.094Z,18.57
2019-02-24T20:33:57.497Z,18.82
2019-02-24T20:36:24.886Z,18.50
2019-02-24T20:38:52.346Z,18.30
2019-02-24T20:41:19.730Z,17.75
2019-02-24T20:43:47.137Z,18.00
2019-02-24T20:46:14.419Z,18.65
2019-02-24T20:48:42.167Z,17.50
2019-02-24T20:51:09.539Z,17.23
2019-02-24T20:53:36.878Z,18.07
2019-02-24T20:59:31.317Z,17.52
2019-02-24T21:01:58.802Z,18.37
2019-02-24T21:04:26.229Z,17.73
2019-02-24T21:06:53.694Z,17.77
2019-02-24T21:09:21.227Z,18.00
2019-02-24T21:11:48.620Z,17.82
2019-02-24T21:14:15.978Z,17.55
2019-02-24T21:16:43.411Z,17.37
2019-02-24T21:19:10.736Z,18.20
2019-02-24T21:21:38.135Z,17.85
2019-02-24T21:24:05.524Z,18.25
2019-02-24T21:26:32.886Z,17.57
2019-02-24T21:29:00.172Z,17.15
2019-02-24T21:31:27.479Z,17.27
2019-02-24T21:33:54.868Z,17.77
2019-02-24T21:36:22.200Z,17.07
2019-02-24T21:38:49.632Z,18.05
2019-02-24T21:41:16.938Z,17.73
2019-02-24T21:43:44.317Z,17.62
2019-02-24T21:46:11.604Z,17.35
2019-02-24T21:48:39.141Z,17.17
2019-02-24T21:51:06.683Z,17.17
2019-02-24T21:53:34.041Z,17.12
2019-02-24T21:56:01.328Z,17.90
2019-02-24T21:58:28.620Z,17.10
2019-02-24T22:00:55.901Z,17.23
2019-02-24T22:03:23.188Z,16.85
2019-02-24T22:05:50.673Z,17.65
2019-02-24T22:08:18.039Z,17.55
2019-02-24T22:10:45.394Z,17.15
2019-02-24T22:13:12.709Z,16.75
2019-02-24T22:15:40.236Z,17.02
2019-02-24T22:18:07.510Z,17.10
2019-02-24T22:20:34.838Z,17.30
2019-02-24T22:23:02.120Z,16.80
2019-02-24T22:25:29.431Z,17.23
2019-02-24T22:27:56.751Z,16.50
2019-02-24T22:30:24.022Z,16.52
2019-02-24T22:32:51.325Z,17.85
2019-02-24T22:35:18.652Z,16.93
2019-02-24T22:37:45.969Z,16.45
2019-02-24T22:40:17.167Z,17.12
2019-02-24T22:42:45.265Z,17.05
2019-02-24T22:45:19.191Z,16.85
2019-02-24T22:47:46.582Z,17.25
2019-02-24T22:50:14.114Z,16.85
2019-02-24T22:52:41.639Z,17.27
2019-02-24T22:55:10.538Z,16.55
2019-02-24T22:57:37.901Z,16.93
2019-02-24T23:00:06.761Z,16.65
2019-02-24T23:02:34.123Z,17.17
2019-02-24T23:05:01.475Z,17.42
2019-02-24T23:07:28.972Z,17.40
2019-02-24T23:09:56.279Z,16.87
2019-02-24T23:12:23.571Z,16.52
2019-02-24T23:14:51.749Z,16.52
2019-02-24T23:17:19.056Z,15.60
2019-02-24T23:19:46.350Z,16.00
2019-02-24T23:22:13.645Z,17.62
2019-02-24T23:24:40.926Z,16.60
2019-02-24T23:27:08.226Z,16.82
2019-02-24T23:29:35.519Z,16.25
2019-02-24T23:32:02.911Z,16.30
2019-02-24T23:34:30.195Z,16.40
2019-02-24T23:36:57.507Z,17.23
2019-02-24T23:39:24.872Z,17.15
2019-02-24T23:41:52.159Z,17.10
2019-02-24T23:44:19.478Z,16.45
2019-02-24T23:46:46.762Z,16.35
2019-02-24T23:49:14.108Z,16.12
2019-02-24T23:51:41.526Z,15.95
2019-02-24T23:54:08.862Z,15.93
2019-02-24T23:56:36.146Z,16.60
2019-02-24T23:59:03.488Z,16.77
